sensor_id;sensor_type;location;lat;lon;timestamp;temperature;humidity
61392;DHT22;47261;52.892;5.738;2023-05-14T00:01:24;12.00;99.90
61392;DHT22;47261;52.892;5.738;2023-05-14T00:03:50;12.00;99.90
61392;DHT22;47261;52.892;5.738;2023-05-14T00:06:16;11.90;99.90
61392;DHT22;47261;52.892;5.738;2023-05-14T00:08:41;11.90;99.90
61392;DHT22;47261;52.892;5.738;2023-05-14T00:11:07;11.90;99.90
61392;DHT22;47261;52.892;5.738;2023-05-14T00:13:34;11.90;99.90
61392;DHT22;47261;52.892;5.738;2023-05-14T00:16:00;11.80;99.90
61392;DHT22;47261;52.892;5.738;2023-05-14T00:18:26;11.80;99.90
61392;DHT22;47261;52.892;5.738;2023-05-14T00:20:51;11.80;99.90
61392;DHT22;47261;52.892;5.738;2023-05-14T00:23:20;11.80;99.90
61392;DHT22;47261;52.892;5.738;2023-05-14T00:25:46;11.80;99.90
61392;DHT22;47261;52.892;5.738;2023-05-14T00:28:11;11.80;99.90
61392;DHT22;47261;52.892;5.738;2023-05-14T00:30:37;11.90;99.90
61392;DHT22;47261;52.892;5.738;2023-05-14T00:33:04;11.80;99.90
61392;DHT22;47261;52.892;5.738;2023-05-14T00:35:30;11.90;99.90
61392;DHT22;47261;52.892;5.738;2023-05-14T00:37:57;11.90;99.90
61392;DHT22;47261;52.892;5.738;2023-05-14T00:40:25;11.90;99.90
61392;DHT22;47261;52.892;5.738;2023-05-14T00:42:51;11.90;99.90
61392;DHT22;47261;52.892;5.738;2023-05-14T00:45:17;11.90;99.90
61392;DHT22;47261;52.892;5.738;2023-05-14T00:47:43;11.90;99.90
61392;DHT22;47261;52.892;5.738;2023-05-14T00:50:09;11.80;99.90
61392;DHT22;47261;52.892;5.738;2023-05-14T00:52:39;11.90;99.90
61392;DHT22;47261;52.892;5.738;2023-05-14T00:55:05;11.80;99.90
61392;DHT22;47261;52.892;5.738;2023-05-14T00:57:32;11.80;99.90
61392;DHT22;47261;52.892;5.738;2023-05-14T00:59:58;11.80;99.90
61392;DHT22;47261;52.892;5.738;2023-05-14T01:02:24;11.80;99.90
61392;DHT22;47261;52.892;5.738;2023-05-14T01:04:51;11.80;99.90
61392;DHT22;47261;52.892;5.738;2023-05-14T01:10:07;11.70;99.90
61392;DHT22;47261;52.892;5.738;2023-05-14T01:12:37;11.70;99.90
61392;DHT22;47261;52.892;5.738;2023-05-14T01:15:11;11.70;99.90
61392;DHT22;47261;52.892;5.738;2023-05-14T01:17:42;11.70;99.90
61392;DHT22;47261;52.892;5.738;2023-05-14T01:20:10;11.70;99.90
61392;DHT22;47261;52.892;5.738;2023-05-14T01:22:36;11.70;99.90
61392;DHT22;47261;52.892;5.738;2023-05-14T01:25:03;11.60;99.90
61392;DHT22;47261;52.892;5.738;2023-05-14T01:30:35;11.60;99.90
61392;DHT22;47261;52.892;5.738;2023-05-14T01:33:07;11.60;99.90
61392;DHT22;47261;52.892;5.738;2023-05-14T01:35:34;11.60;99.90
61392;DHT22;47261;52.892;5.738;2023-05-14T01:38:02;11.60;99.90
61392;DHT22;47261;52.892;5.738;2023-05-14T01:40:29;11.60;99.90
61392;DHT22;47261;52.892;5.738;2023-05-14T01:42:56;11.60;99.90
61392;DHT22;47261;52.892;5.738;2023-05-14T01:45:23;11.60;99.90
61392;DHT22;47261;52.892;5.738;2023-05-14T01:47:49;11.60;99.90
61392;DHT22;47261;52.892;5.738;2023-05-14T01:50:15;11.50;99.90
61392;DHT22;47261;52.892;5.738;2023-05-14T01:52:41;11.50;99.90
61392;DHT22;47261;52.892;5.738;2023-05-14T01:55:07;11.40;99.90
61392;DHT22;47261;52.892;5.738;2023-05-14T01:57:33;11.40;99.90
61392;DHT22;47261;52.892;5.738;2023-05-14T01:59:59;11.40;99.90
61392;DHT22;47261;52.892;5.738;2023-05-14T02:02:24;11.40;99.90
61392;DHT22;47261;52.892;5.738;2023-05-14T02:04:50;11.40;99.90
61392;DHT22;47261;52.892;5.738;2023-05-14T02:07:16;11.40;99.90
61392;DHT22;47261;52.892;5.738;2023-05-14T02:09:41;11.40;99.90
61392;DHT22;47261;52.892;5.738;2023-05-14T02:12:08;11.40;99.90
61392;DHT22;47261;52.892;5.738;2023-05-14T02:14:34;11.40;99.90
61392;DHT22;47261;52.892;5.738;2023-05-14T02:16:59;11.40;99.90
61392;DHT22;47261;52.892;5.738;2023-05-14T02:19:25;11.40;99.90
61392;DHT22;47261;52.892;5.738;2023-05-14T02:21:50;11.40;99.90
61392;DHT22;47261;52.892;5.738;2023-05-14T02:24:16;11.40;99.90
61392;DHT22;47261;52.892;5.738;2023-05-14T02:26:42;11.40;99.90
61392;DHT22;47261;52.892;5.738;2023-05-14T02:29:07;11.40;99.90
61392;DHT22;47261;52.892;5.738;2023-05-14T02:31:33;11.30;99.90
61392;DHT22;47261;52.892;5.738;2023-05-14T02:34:00;11.30;99.90
61392;DHT22;47261;52.892;5.738;2023-05-14T02:36:26;11.30;99.90
61392;DHT22;47261;52.892;5.738;2023-05-14T02:38:52;11.30;99.90
61392;DHT22;47261;52.892;5.738;2023-05-14T02:41:17;11.20;99.90
61392;DHT22;47261;52.892;5.738;2023-05-14T02:43:43;11.20;99.90
61392;DHT22;47261;52.892;5.738;2023-05-14T02:46:08;11.20;99.90
61392;DHT22;47261;52.892;5.738;2023-05-14T02:48:34;11.20;99.90
61392;DHT22;47261;52.892;5.738;2023-05-14T02:51:00;11.20;99.90
61392;DHT22;47261;52.892;5.738;2023-05-14T02:53:26;11.20;99.90
61392;DHT22;47261;52.892;5.738;2023-05-14T02:55:51;11.30;99.90
61392;DHT22;47261;52.892;5.738;2023-05-14T02:58:17;11.30;99.90
61392;DHT22;47261;52.892;5.738;2023-05-14T03:00:43;11.30;99.90
61392;DHT22;47261;52.892;5.738;2023-05-14T03:03:09;11.30;99.90
61392;DHT22;47261;52.892;5.738;2023-05-14T03:05:34;11.30;99.90
61392;DHT22;47261;52.892;5.738;2023-05-14T03:08:00;11.30;99.90
61392;DHT22;47261;52.892;5.738;2023-05-14T03:10:26;11.30;99.90
61392;DHT22;47261;52.892;5.738;2023-05-14T03:12:51;11.40;99.90
61392;DHT22;47261;52.892;5.738;2023-05-14T03:15:17;11.40;99.90
61392;DHT22;47261;52.892;5.738;2023-05-14T03:17:43;11.40;99.90
61392;DHT22;47261;52.892;5.738;2023-05-14T03:20:09;11.40;99.90
61392;DHT22;47261;52.892;5.738;2023-05-14T03:22:35;11.40;99.90
61392;DHT22;47261;52.892;5.738;2023-05-14T03:25:00;11.40;99.90
61392;DHT22;47261;52.892;5.738;2023-05-14T03:27:26;11.40;99.90
61392;DHT22;47261;52.892;5.738;2023-05-14T03:29:52;11.40;99.90
61392;DHT22;47261;52.892;5.738;2023-05-14T03:32:17;11.40;99.90
61392;DHT22;47261;52.892;5.738;2023-05-14T03:34:43;11.40;99.90
61392;DHT22;47261;52.892;5.738;2023-05-14T03:37:09;11.40;99.90
61392;DHT22;47261;52.892;5.738;2023-05-14T03:39:35;11.40;99.90
61392;DHT22;47261;52.892;5.738;2023-05-14T03:42:01;11.40;99.90
61392;DHT22;47261;52.892;5.738;2023-05-14T03:44:26;11.30;99.90
61392;DHT22;47261;52.892;5.738;2023-05-14T03:46:52;11.30;99.90
61392;DHT22;47261;52.892;5.738;2023-05-14T03:49:18;11.30;99.90
61392;DHT22;47261;52.892;5.738;2023-05-14T03:51:43;11.30;99.90
61392;DHT22;47261;52.892;5.738;2023-05-14T03:54:09;11.30;99.90
61392;DHT22;47261;52.892;5.738;2023-05-14T03:56:35;11.30;99.90
61392;DHT22;47261;52.892;5.738;2023-05-14T03:59:01;11.30;99.90
61392;DHT22;47261;52.892;5.738;2023-05-14T04:01:26;11.30;99.90
61392;DHT22;47261;52.892;5.738;2023-05-14T04:03:52;11.30;99.90
61392;DHT22;47261;52.892;5.738;2023-05-14T04:06:18;11.30;99.90
61392;DHT22;47261;52.892;5.738;2023-05-14T04:08:43;11.40;99.90
61392;DHT22;47261;52.892;5.738;2023-05-14T04:11:09;11.40;99.90
61392;DHT22;47261;52.892;5.738;2023-05-14T04:13:35;11.40;99.90
61392;DHT22;47261;52.892;5.738;2023-05-14T04:16:00;11.50;99.90
61392;DHT22;47261;52.892;5.738;2023-05-14T04:18:26;11.60;99.90
61392;DHT22;47261;52.892;5.738;2023-05-14T04:20:51;11.60;99.90
61392;DHT22;47261;52.892;5.738;2023-05-14T04:23:17;11.70;99.90
61392;DHT22;47261;52.892;5.738;2023-05-14T04:25:43;11.70;99.90
61392;DHT22;47261;52.892;5.738;2023-05-14T04:28:08;11.80;99.90
61392;DHT22;47261;52.892;5.738;2023-05-14T04:30:34;11.80;99.90
61392;DHT22;47261;52.892;5.738;2023-05-14T04:33:00;11.90;99.90
61392;DHT22;47261;52.892;5.738;2023-05-14T04:35:25;11.90;99.90
61392;DHT22;47261;52.892;5.738;2023-05-14T04:37:51;12.00;99.90
61392;DHT22;47261;52.892;5.738;2023-05-14T04:40:17;12.00;99.90
61392;DHT22;47261;52.892;5.738;2023-05-14T04:42:43;12.10;99.90
61392;DHT22;47261;52.892;5.738;2023-05-14T04:45:09;12.10;99.90
61392;DHT22;47261;52.892;5.738;2023-05-14T04:47:35;12.20;99.90
61392;DHT22;47261;52.892;5.738;2023-05-14T04:50:01;12.20;99.90
61392;DHT22;47261;52.892;5.738;2023-05-14T04:52:27;12.30;99.90
61392;DHT22;47261;52.892;5.738;2023-05-14T04:54:52;12.30;99.90
61392;DHT22;47261;52.892;5.738;2023-05-14T04:57:18;12.30;99.90
61392;DHT22;47261;52.892;5.738;2023-05-14T04:59:44;12.30;99.90
61392;DHT22;47261;52.892;5.738;2023-05-14T05:02:09;12.40;99.90
61392;DHT22;47261;52.892;5.738;2023-05-14T05:04:35;12.40;99.90
61392;DHT22;47261;52.892;5.738;2023-05-14T05:07:04;12.50;99.90
61392;DHT22;47261;52.892;5.738;2023-05-14T05:09:30;12.50;99.90
61392;DHT22;47261;52.892;5.738;2023-05-14T05:11:56;12.50;99.90
61392;DHT22;47261;52.892;5.738;2023-05-14T05:14:22;12.60;99.90
61392;DHT22;47261;52.892;5.738;2023-05-14T05:16:47;12.60;99.90
61392;DHT22;47261;52.892;5.738;2023-05-14T05:19:13;12.70;99.90
61392;DHT22;47261;52.892;5.738;2023-05-14T05:21:38;12.80;99.90
61392;DHT22;47261;52.892;5.738;2023-05-14T05:24:07;12.80;99.90
61392;DHT22;47261;52.892;5.738;2023-05-14T05:26:33;12.90;99.90
61392;DHT22;47261;52.892;5.738;2023-05-14T05:29:02;13.00;99.90
61392;DHT22;47261;52.892;5.738;2023-05-14T05:31:28;13.20;99.90
61392;DHT22;47261;52.892;5.738;2023-05-14T05:33:54;13.20;99.90
61392;DHT22;47261;52.892;5.738;2023-05-14T05:36:20;13.30;99.90
61392;DHT22;47261;52.892;5.738;2023-05-14T05:38:45;13.30;99.90
61392;DHT22;47261;52.892;5.738;2023-05-14T05:41:11;13.30;99.90
61392;DHT22;47261;52.892;5.738;2023-05-14T05:43:37;13.30;99.90
61392;DHT22;47261;52.892;5.738;2023-05-14T05:46:02;13.40;99.90
61392;DHT22;47261;52.892;5.738;2023-05-14T05:48:28;13.50;99.90
61392;DHT22;47261;52.892;5.738;2023-05-14T05:50:54;13.50;99.90
61392;DHT22;47261;52.892;5.738;2023-05-14T05:53:19;13.50;99.90
61392;DHT22;47261;52.892;5.738;2023-05-14T05:55:45;13.60;99.90
61392;DHT22;47261;52.892;5.738;2023-05-14T05:58:11;13.70;99.90
61392;DHT22;47261;52.892;5.738;2023-05-14T06:00:38;13.90;99.90
61392;DHT22;47261;52.892;5.738;2023-05-14T06:03:04;14.10;99.90
61392;DHT22;47261;52.892;5.738;2023-05-14T06:05:30;14.30;99.90
61392;DHT22;47261;52.892;5.738;2023-05-14T06:07:55;14.40;99.90
61392;DHT22;47261;52.892;5.738;2023-05-14T06:10:21;14.50;99.90
61392;DHT22;47261;52.892;5.738;2023-05-14T06:12:46;14.60;99.90
61392;DHT22;47261;52.892;5.738;2023-05-14T06:15:13;14.80;99.90
61392;DHT22;47261;52.892;5.738;2023-05-14T06:17:39;15.00;99.90
61392;DHT22;47261;52.892;5.738;2023-05-14T06:20:05;15.10;99.90
61392;DHT22;47261;52.892;5.738;2023-05-14T06:22:32;15.20;99.90
61392;DHT22;47261;52.892;5.738;2023-05-14T06:24:58;15.30;99.90
61392;DHT22;47261;52.892;5.738;2023-05-14T06:27:24;15.40;99.90
61392;DHT22;47261;52.892;5.738;2023-05-14T06:29:49;15.60;99.90
61392;DHT22;47261;52.892;5.738;2023-05-14T06:32:15;15.70;99.90
61392;DHT22;47261;52.892;5.738;2023-05-14T06:34:41;15.70;99.70
61392;DHT22;47261;52.892;5.738;2023-05-14T06:37:07;15.70;99.60
61392;DHT22;47261;52.892;5.738;2023-05-14T06:39:34;15.90;99.70
61392;DHT22;47261;52.892;5.738;2023-05-14T06:42:00;16.00;99.70
61392;DHT22;47261;52.892;5.738;2023-05-14T06:44:27;16.20;99.70
61392;DHT22;47261;52.892;5.738;2023-05-14T06:46:53;16.30;99.50
61392;DHT22;47261;52.892;5.738;2023-05-14T06:49:19;16.50;99.30
61392;DHT22;47261;52.892;5.738;2023-05-14T06:51:44;16.60;99.20
61392;DHT22;47261;52.892;5.738;2023-05-14T06:54:10;16.80;99.10
61392;DHT22;47261;52.892;5.738;2023-05-14T06:56:36;16.90;98.90
61392;DHT22;47261;52.892;5.738;2023-05-14T06:59:01;17.00;98.40
61392;DHT22;47261;52.892;5.738;2023-05-14T07:01:27;17.00;98.30
61392;DHT22;47261;52.892;5.738;2023-05-14T07:03:53;17.00;98.10
61392;DHT22;47261;52.892;5.738;2023-05-14T07:06:18;17.00;98.00
61392;DHT22;47261;52.892;5.738;2023-05-14T07:08:44;16.90;97.80
61392;DHT22;47261;52.892;5.738;2023-05-14T07:11:13;16.90;97.80
61392;DHT22;47261;52.892;5.738;2023-05-14T07:13:39;16.80;97.70
61392;DHT22;47261;52.892;5.738;2023-05-14T07:16:06;16.90;97.60
61392;DHT22;47261;52.892;5.738;2023-05-14T07:18:33;16.90;97.60
61392;DHT22;47261;52.892;5.738;2023-05-14T07:20:59;16.90;97.50
61392;DHT22;47261;52.892;5.738;2023-05-14T07:23:25;17.00;97.60
61392;DHT22;47261;52.892;5.738;2023-05-14T07:25:50;17.00;97.40
61392;DHT22;47261;52.892;5.738;2023-05-14T07:28:16;17.00;97.40
61392;DHT22;47261;52.892;5.738;2023-05-14T07:30:42;17.10;97.50
61392;DHT22;47261;52.892;5.738;2023-05-14T07:33:07;17.10;97.30
61392;DHT22;47261;52.892;5.738;2023-05-14T07:35:33;17.10;97.20
61392;DHT22;47261;52.892;5.738;2023-05-14T07:37:59;17.10;97.30
61392;DHT22;47261;52.892;5.738;2023-05-14T07:40:24;17.20;97.40
61392;DHT22;47261;52.892;5.738;2023-05-14T07:42:50;17.20;97.40
61392;DHT22;47261;52.892;5.738;2023-05-14T07:45:16;17.30;97.30
61392;DHT22;47261;52.892;5.738;2023-05-14T07:47:42;17.40;97.10
61392;DHT22;47261;52.892;5.738;2023-05-14T07:50:08;17.50;97.00
61392;DHT22;47261;52.892;5.738;2023-05-14T07:52:34;17.60;96.80
61392;DHT22;47261;52.892;5.738;2023-05-14T07:55:02;17.70;96.50
61392;DHT22;47261;52.892;5.738;2023-05-14T07:57:27;17.70;96.40
61392;DHT22;47261;52.892;5.738;2023-05-14T07:59:53;17.80;95.90
61392;DHT22;47261;52.892;5.738;2023-05-14T08:02:18;17.90;95.90
61392;DHT22;47261;52.892;5.738;2023-05-14T08:04:44;18.00;96.10
61392;DHT22;47261;52.892;5.738;2023-05-14T08:07:10;18.10;95.70
61392;DHT22;47261;52.892;5.738;2023-05-14T08:09:36;18.20;95.40
61392;DHT22;47261;52.892;5.738;2023-05-14T08:12:01;18.20;95.30
61392;DHT22;47261;52.892;5.738;2023-05-14T08:14:27;18.20;95.30
61392;DHT22;47261;52.892;5.738;2023-05-14T08:16:53;18.20;95.60
61392;DHT22;47261;52.892;5.738;2023-05-14T08:19:18;18.20;95.80
61392;DHT22;47261;52.892;5.738;2023-05-14T08:21:44;18.20;95.50
61392;DHT22;47261;52.892;5.738;2023-05-14T08:24:10;18.10;95.30
61392;DHT22;47261;52.892;5.738;2023-05-14T08:26:36;18.20;95.50
61392;DHT22;47261;52.892;5.738;2023-05-14T08:29:03;18.20;95.50
61392;DHT22;47261;52.892;5.738;2023-05-14T08:31:29;18.30;95.60
61392;DHT22;47261;52.892;5.738;2023-05-14T08:33:54;18.40;95.50
61392;DHT22;47261;52.892;5.738;2023-05-14T08:36:20;18.50;95.20
61392;DHT22;47261;52.892;5.738;2023-05-14T08:38:46;18.60;95.40
61392;DHT22;47261;52.892;5.738;2023-05-14T08:41:14;18.70;95.30
61392;DHT22;47261;52.892;5.738;2023-05-14T08:46:24;18.90;94.90
61392;DHT22;47261;52.892;5.738;2023-05-14T08:51:45;18.90;94.30
61392;DHT22;47261;52.892;5.738;2023-05-14T08:54:14;18.90;94.60
61392;DHT22;47261;52.892;5.738;2023-05-14T08:56:43;19.00;94.50
61392;DHT22;47261;52.892;5.738;2023-05-14T08:59:09;18.90;94.30
61392;DHT22;47261;52.892;5.738;2023-05-14T09:01:37;18.90;94.10
61392;DHT22;47261;52.892;5.738;2023-05-14T09:04:05;18.90;94.40
61392;DHT22;47261;52.892;5.738;2023-05-14T09:06:35;18.90;94.60
61392;DHT22;47261;52.892;5.738;2023-05-14T09:09:02;19.00;94.90
61392;DHT22;47261;52.892;5.738;2023-05-14T09:11:28;19.00;94.90
61392;DHT22;47261;52.892;5.738;2023-05-14T09:13:53;19.20;94.90
61392;DHT22;47261;52.892;5.738;2023-05-14T09:16:19;19.40;94.60
61392;DHT22;47261;52.892;5.738;2023-05-14T09:18:46;19.40;94.20
61392;DHT22;47261;52.892;5.738;2023-05-14T09:21:14;19.60;94.20
61392;DHT22;47261;52.892;5.738;2023-05-14T09:23:43;19.70;93.90
61392;DHT22;47261;52.892;5.738;2023-05-14T09:26:10;20.00;93.50
61392;DHT22;47261;52.892;5.738;2023-05-14T09:28:39;20.20;93.10
61392;DHT22;47261;52.892;5.738;2023-05-14T09:31:08;20.40;92.60
61392;DHT22;47261;52.892;5.738;2023-05-14T09:33:34;20.50;92.30
61392;DHT22;47261;52.892;5.738;2023-05-14T09:36:01;20.70;92.20
61392;DHT22;47261;52.892;5.738;2023-05-14T09:38:28;21.00;92.10
61392;DHT22;47261;52.892;5.738;2023-05-14T09:40:54;21.30;91.90
61392;DHT22;47261;52.892;5.738;2023-05-14T09:43:20;21.70;91.10
61392;DHT22;47261;52.892;5.738;2023-05-14T09:45:46;22.00;90.70
61392;DHT22;47261;52.892;5.738;2023-05-14T09:48:12;22.30;89.10
61392;DHT22;47261;52.892;5.738;2023-05-14T09:50:45;22.50;87.20
61392;DHT22;47261;52.892;5.738;2023-05-14T09:53:12;22.50;86.10
61392;DHT22;47261;52.892;5.738;2023-05-14T09:55:38;22.60;86.00
61392;DHT22;47261;52.892;5.738;2023-05-14T09:58:04;22.70;86.00
61392;DHT22;47261;52.892;5.738;2023-05-14T10:00:34;22.80;85.00
61392;DHT22;47261;52.892;5.738;2023-05-14T10:03:04;22.80;82.90
61392;DHT22;47261;52.892;5.738;2023-05-14T10:05:34;22.90;81.90
61392;DHT22;47261;52.892;5.738;2023-05-14T10:08:04;23.00;80.10
61392;DHT22;47261;52.892;5.738;2023-05-14T10:10:32;22.90;80.40
61392;DHT22;47261;52.892;5.738;2023-05-14T10:13:03;23.00;81.30
61392;DHT22;47261;52.892;5.738;2023-05-14T10:15:35;23.10;80.50
61392;DHT22;47261;52.892;5.738;2023-05-14T10:18:07;23.00;81.00
61392;DHT22;47261;52.892;5.738;2023-05-14T10:20:33;23.00;79.90
61392;DHT22;47261;52.892;5.738;2023-05-14T10:23:01;23.10;80.20
61392;DHT22;47261;52.892;5.738;2023-05-14T10:25:27;23.40;80.30
61392;DHT22;47261;52.892;5.738;2023-05-14T10:27:53;23.50;80.10
61392;DHT22;47261;52.892;5.738;2023-05-14T10:30:20;23.60;79.00
61392;DHT22;47261;52.892;5.738;2023-05-14T10:33:07;23.70;78.60
61392;DHT22;47261;52.892;5.738;2023-05-14T10:38:26;23.90;77.70
61392;DHT22;47261;52.892;5.738;2023-05-14T10:41:03;23.90;77.70
61392;DHT22;47261;52.892;5.738;2023-05-14T10:43:30;23.90;75.90
61392;DHT22;47261;52.892;5.738;2023-05-14T10:46:00;24.00;75.10
61392;DHT22;47261;52.892;5.738;2023-05-14T10:48:27;24.10;74.80
61392;DHT22;47261;52.892;5.738;2023-05-14T10:50:54;24.30;75.10
61392;DHT22;47261;52.892;5.738;2023-05-14T10:53:32;24.40;73.90
61392;DHT22;47261;52.892;5.738;2023-05-14T10:56:11;24.50;73.70
61392;DHT22;47261;52.892;5.738;2023-05-14T10:58:39;24.50;73.30
61392;DHT22;47261;52.892;5.738;2023-05-14T11:01:06;24.60;73.80
61392;DHT22;47261;52.892;5.738;2023-05-14T11:03:45;24.90;72.90
61392;DHT22;47261;52.892;5.738;2023-05-14T11:06:12;25.10;72.70
61392;DHT22;47261;52.892;5.738;2023-05-14T11:08:38;25.40;71.30
61392;DHT22;47261;52.892;5.738;2023-05-14T11:11:08;25.40;70.20
61392;DHT22;47261;52.892;5.738;2023-05-14T11:13:34;25.50;69.90
61392;DHT22;47261;52.892;5.738;2023-05-14T11:16:01;25.70;69.40
61392;DHT22;47261;52.892;5.738;2023-05-14T11:18:28;25.80;68.50
61392;DHT22;47261;52.892;5.738;2023-05-14T11:21:00;25.90;68.70
61392;DHT22;47261;52.892;5.738;2023-05-14T11:23:26;25.90;68.50
61392;DHT22;47261;52.892;5.738;2023-05-14T11:25:52;26.00;68.40
61392;DHT22;47261;52.892;5.738;2023-05-14T11:28:25;26.10;67.00
61392;DHT22;47261;52.892;5.738;2023-05-14T11:30:52;26.20;65.70
61392;DHT22;47261;52.892;5.738;2023-05-14T11:33:19;26.40;65.30
61392;DHT22;47261;52.892;5.738;2023-05-14T11:35:45;26.40;64.70
61392;DHT22;47261;52.892;5.738;2023-05-14T11:38:15;26.40;64.00
61392;DHT22;47261;52.892;5.738;2023-05-14T11:40:41;26.50;64.40
61392;DHT22;47261;52.892;5.738;2023-05-14T11:43:07;26.70;64.50
61392;DHT22;47261;52.892;5.738;2023-05-14T11:45:33;26.80;63.60
61392;DHT22;47261;52.892;5.738;2023-05-14T11:47:58;26.90;63.70
61392;DHT22;47261;52.892;5.738;2023-05-14T11:50:24;26.80;63.10
61392;DHT22;47261;52.892;5.738;2023-05-14T11:52:50;26.80;63.00
61392;DHT22;47261;52.892;5.738;2023-05-14T11:55:16;26.80;62.90
61392;DHT22;47261;52.892;5.738;2023-05-14T11:57:42;26.80;63.20
61392;DHT22;47261;52.892;5.738;2023-05-14T12:00:08;26.80;63.90
61392;DHT22;47261;52.892;5.738;2023-05-14T12:02:37;26.80;63.80
61392;DHT22;47261;52.892;5.738;2023-05-14T12:05:04;26.90;63.90
61392;DHT22;47261;52.892;5.738;2023-05-14T12:07:31;27.00;64.20
61392;DHT22;47261;52.892;5.738;2023-05-14T12:10:03;27.00;62.70
61392;DHT22;47261;52.892;5.738;2023-05-14T12:12:34;26.90;61.60
61392;DHT22;47261;52.892;5.738;2023-05-14T12:15:01;26.70;61.00
61392;DHT22;47261;52.892;5.738;2023-05-14T12:17:34;26.40;61.60
61392;DHT22;47261;52.892;5.738;2023-05-14T12:20:02;26.20;61.20
61392;DHT22;47261;52.892;5.738;2023-05-14T12:22:28;26.10;60.70
61392;DHT22;47261;52.892;5.738;2023-05-14T12:24:56;26.00;60.30
61392;DHT22;47261;52.892;5.738;2023-05-14T12:27:23;26.00;60.20
61392;DHT22;47261;52.892;5.738;2023-05-14T12:29:57;25.90;59.20
61392;DHT22;47261;52.892;5.738;2023-05-14T12:32:24;25.80;59.40
61392;DHT22;47261;52.892;5.738;2023-05-14T12:34:50;25.80;60.00
61392;DHT22;47261;52.892;5.738;2023-05-14T12:37:16;25.70;59.80
61392;DHT22;47261;52.892;5.738;2023-05-14T12:39:42;25.60;59.60
61392;DHT22;47261;52.892;5.738;2023-05-14T12:42:08;25.50;60.50
61392;DHT22;47261;52.892;5.738;2023-05-14T12:44:34;25.40;60.70
61392;DHT22;47261;52.892;5.738;2023-05-14T12:47:00;25.40;60.80
61392;DHT22;47261;52.892;5.738;2023-05-14T12:49:25;25.30;60.80
61392;DHT22;47261;52.892;5.738;2023-05-14T12:51:51;25.30;61.00
61392;DHT22;47261;52.892;5.738;2023-05-14T12:54:16;25.30;62.10
61392;DHT22;47261;52.892;5.738;2023-05-14T12:56:42;25.30;62.10
61392;DHT22;47261;52.892;5.738;2023-05-14T12:59:08;25.40;62.70
61392;DHT22;47261;52.892;5.738;2023-05-14T13:01:33;25.40;62.60
61392;DHT22;47261;52.892;5.738;2023-05-14T13:03:59;25.50;62.60
61392;DHT22;47261;52.892;5.738;2023-05-14T13:06:25;25.60;62.80
61392;DHT22;47261;52.892;5.738;2023-05-14T13:08:50;25.70;63.20
61392;DHT22;47261;52.892;5.738;2023-05-14T13:11:16;25.70;63.50
61392;DHT22;47261;52.892;5.738;2023-05-14T13:13:42;25.70;63.20
61392;DHT22;47261;52.892;5.738;2023-05-14T13:16:08;25.70;62.30
61392;DHT22;47261;52.892;5.738;2023-05-14T13:18:33;25.60;61.60
61392;DHT22;47261;52.892;5.738;2023-05-14T13:20:59;25.60;62.70
61392;DHT22;47261;52.892;5.738;2023-05-14T13:23:24;25.60;62.70
61392;DHT22;47261;52.892;5.738;2023-05-14T13:25:50;25.70;61.80
61392;DHT22;47261;52.892;5.738;2023-05-14T13:28:16;25.70;62.00
61392;DHT22;47261;52.892;5.738;2023-05-14T13:31:03;25.70;62.60
61392;DHT22;47261;52.892;5.738;2023-05-14T13:33:29;25.90;61.60
61392;DHT22;47261;52.892;5.738;2023-05-14T13:35:55;25.90;61.80
61392;DHT22;47261;52.892;5.738;2023-05-14T13:38:20;25.90;61.70
61392;DHT22;47261;52.892;5.738;2023-05-14T13:40:46;25.80;62.60
61392;DHT22;47261;52.892;5.738;2023-05-14T13:43:11;25.80;62.30
61392;DHT22;47261;52.892;5.738;2023-05-14T13:45:37;25.80;62.20
61392;DHT22;47261;52.892;5.738;2023-05-14T13:48:02;25.80;61.10
61392;DHT22;47261;52.892;5.738;2023-05-14T13:50:28;25.80;60.50
61392;DHT22;47261;52.892;5.738;2023-05-14T13:52:54;25.90;60.20
61392;DHT22;47261;52.892;5.738;2023-05-14T13:55:19;26.00;61.50
61392;DHT22;47261;52.892;5.738;2023-05-14T13:57:45;26.10;62.70
61392;DHT22;47261;52.892;5.738;2023-05-14T14:00:11;26.10;62.80
61392;DHT22;47261;52.892;5.738;2023-05-14T14:02:37;26.10;63.20
61392;DHT22;47261;52.892;5.738;2023-05-14T14:05:03;26.00;63.40
61392;DHT22;47261;52.892;5.738;2023-05-14T14:07:29;26.00;64.00
61392;DHT22;47261;52.892;5.738;2023-05-14T14:09:55;25.90;64.20
61392;DHT22;47261;52.892;5.738;2023-05-14T14:12:20;25.80;64.40
61392;DHT22;47261;52.892;5.738;2023-05-14T14:14:46;25.70;64.30
61392;DHT22;47261;52.892;5.738;2023-05-14T14:17:12;25.60;64.00
61392;DHT22;47261;52.892;5.738;2023-05-14T14:19:37;25.60;64.30
61392;DHT22;47261;52.892;5.738;2023-05-14T14:22:03;25.70;64.40
61392;DHT22;47261;52.892;5.738;2023-05-14T14:24:29;25.60;63.40
61392;DHT22;47261;52.892;5.738;2023-05-14T14:26:55;25.60;64.10
61392;DHT22;47261;52.892;5.738;2023-05-14T14:29:20;25.50;63.90
61392;DHT22;47261;52.892;5.738;2023-05-14T14:31:48;25.40;63.70
61392;DHT22;47261;52.892;5.738;2023-05-14T14:34:13;25.40;64.20
61392;DHT22;47261;52.892;5.738;2023-05-14T14:36:39;25.40;64.30
61392;DHT22;47261;52.892;5.738;2023-05-14T14:39:05;25.30;63.90
61392;DHT22;47261;52.892;5.738;2023-05-14T14:41:30;25.20;63.40
61392;DHT22;47261;52.892;5.738;2023-05-14T14:43:56;25.00;64.40
61392;DHT22;47261;52.892;5.738;2023-05-14T14:46:21;24.90;64.20
61392;DHT22;47261;52.892;5.738;2023-05-14T14:48:47;24.70;63.80
61392;DHT22;47261;52.892;5.738;2023-05-14T14:51:13;24.60;64.30
61392;DHT22;47261;52.892;5.738;2023-05-14T14:53:38;24.50;64.70
61392;DHT22;47261;52.892;5.738;2023-05-14T14:56:05;24.50;64.80
61392;DHT22;47261;52.892;5.738;2023-05-14T14:58:31;24.50;65.20
61392;DHT22;47261;52.892;5.738;2023-05-14T15:00:57;24.40;65.50
61392;DHT22;47261;52.892;5.738;2023-05-14T15:03:23;24.40;65.60
61392;DHT22;47261;52.892;5.738;2023-05-14T15:05:49;24.50;65.40
61392;DHT22;47261;52.892;5.738;2023-05-14T15:08:16;24.40;65.30
61392;DHT22;47261;52.892;5.738;2023-05-14T15:10:43;24.40;65.30
61392;DHT22;47261;52.892;5.738;2023-05-14T15:13:08;24.40;65.30
61392;DHT22;47261;52.892;5.738;2023-05-14T15:15:35;24.30;65.00
61392;DHT22;47261;52.892;5.738;2023-05-14T15:18:02;24.30;64.80
61392;DHT22;47261;52.892;5.738;2023-05-14T15:20:28;24.30;65.10
61392;DHT22;47261;52.892;5.738;2023-05-14T15:22:54;24.20;65.30
61392;DHT22;47261;52.892;5.738;2023-05-14T15:25:20;24.20;65.60
61392;DHT22;47261;52.892;5.738;2023-05-14T15:27:46;24.10;65.90
61392;DHT22;47261;52.892;5.738;2023-05-14T15:30:13;24.00;66.00
61392;DHT22;47261;52.892;5.738;2023-05-14T15:32:39;23.90;65.60
61392;DHT22;47261;52.892;5.738;2023-05-14T15:35:05;23.80;67.00
61392;DHT22;47261;52.892;5.738;2023-05-14T15:37:39;23.60;67.80
61392;DHT22;47261;52.892;5.738;2023-05-14T15:40:05;23.50;70.00